Terminal Aerodrome Forecast
Issued by NWS

Home | Current Version | Previous Version | Graphics & Text | Print | Product List | Glossary On
Versions: 1 2 3 4 5 6 7 8 9 10 11 12
000
FTUS43 KMPX 152339
TAFRWF
TAF
KRWF 152339Z 1600/1624 32017G25KT 6SM BLSN SCT015 SCT030
      TEMPO 1600/1602 BKN013
     FM160500 32012G18KT P6SM SCT015 SCT030
     FM161200 31008KT P6SM SCT015 SCT030=

USA.gov is the U.S. government's official web portal to all federal, state and local government web resources and services.